LFBO Airport Information

Runway Information
Runway 14L Length 9843 ft width 148 ft
Elevation 490 ft Threshold 0 ft Heading 143
Runway 32R Length 9843 ft Width 148 ft
Elevation 497 ft Threshold 0 ft Heading 323
Runway 14R Length 11483 ft width 148 ft
Elevation 488 ft Threshold 0 ft Heading 143
Runway 32L Length 11483 ft Width 148 ft
Elevation 497 ft Threshold 0 ft Heading 323
Airport Frequencies
Type AFIS Name TOULOUSE I Frequency 121.25 MHZ
Type APP Name APP Frequency 121.1 MHZ
Type APP Name TOULOUSE A Frequency 125.175 MHZ
Type ATIS Name ATIS Frequency 123.125 MHZ
Type CLD Name CLNC DEL Frequency 121.7 MHZ
Type GND Name GND Frequency 121.9 MHZ
Type TWR Name TWR Frequency 118.1 MHZ
Airport Navaids
Type NDB Name Toulouse Frequency 415 KHZ
Type VOR-DME Name Toulouse Frequency 117700 KHZ
Type NDB Name Toulouse Frequency 423 KHZ
Type NDB Name Toulouse Frequency 406 KHZ
Airport Weather Information & NOTAM
ADDS - METARS form results

(1152 UTC 21 September 2018)
Data provider http://aviationweather.gov/metar/data/
 
METAR text: LFBO 211130Z AUTO 28009KT 220V010 9999 BKN035 BKN043 25/15 Q1021 NOSIG
Conditions at: LFBO (TOULOUSE/BLAGNAC, FR) observed 1130 UTC 21 September 2018
Temperature: 25.0°C (77°F)
Dewpoint: 15.0°C (59°F) [RH = 54%]
Pressure (altimeter): 30.15 inches Hg (1021.0 mb)
Winds: from the W (280 degrees) at 10 MPH (9 knots; 4.6 m/s)
Visibility: 6 or more miles (10+ km)
Ceiling: 3500 feet AGL
Clouds: broken clouds at 3500 feet AGL
broken clouds at 4300 feet AGL
Weather: no significant weather observed at this time

METAR text: LFBO 211100Z AUTO 26006KT 200V310 9999 BKN032 BKN220 24/15 Q1021 NOSIG
Conditions at: LFBO (TOULOUSE/BLAGNAC, FR) observed 1100 UTC 21 September 2018
Temperature: 24.0°C (75°F)
Dewpoint: 15.0°C (59°F) [RH = 57%]
Pressure (altimeter): 30.15 inches Hg (1021.0 mb)
Winds: from the W (260 degrees) at 7 MPH (6 knots; 3.1 m/s)
Visibility: 6 or more miles (10+ km)
Ceiling: 3200 feet AGL
Clouds: broken clouds at 3200 feet AGL
broken clouds at 22000 feet AGL
Weather: no significant weather observed at this time

Forecast for: LFBO (TOULOUSE/BLAGNAC, FR)
Text: TAF LFBO 211100Z 2112/2218 30008KT 9999 FEW035 SCT065
Forecast period: 1200 UTC 21 September 2018 to 1800 UTC 22 September 2018
Forecast type: FROM: standard forecast or significant change
Winds: from the WNW (300 degrees) at 9 MPH (8 knots; 4.1 m/s)
Visibility: 6 or more miles 10+ km)
Ceiling: at least 12,000 feet AGL
Clouds: few clouds at 3500 feet AGL
scattered clouds at 6500 feet AGL
Weather: no significant weather forecast for this period